Time;durP1;ratioP1;P1;durP2;ratioP2;P2;SDS_P1;SDS_P2;PMS_P1;PMS_P2;Temp;Humidity;BMP_temperature;BMP_pressure;BME280_temperature;BME280_humidity;BME280_pressure;Samples;Min_cycle;Max_cycle;Signal;HPM_P1;HPM_P2
2023/01/14 00:00:28;;;;;;;;;;;;;;;;;;1043803;28;19952;-76
2023/01/14 00:00:59;;;;;;;;;;;;;;;;;;1040613;28;19916;-77
2023/01/14 00:01:30;;;;;;;;;;;;;;;;;;1043737;28;19912;-76
2023/01/14 00:02:01;;;;;;;;;;;;;;;;;;1047934;28;19943;-77
2023/01/14 00:02:32;;;;;;;;;;;;;;;;;;1047827;28;19919;-77
2023/01/14 00:03:02;;;;;;;;;;;;;;;;;;1043738;28;19982;-76
2023/01/14 00:03:33;;;;;;;;;;;;;;;;;;1043330;28;19920;-77
2023/01/14 00:04:04;;;;;;;;;;;;;;;;;;1043955;28;20028;-77
2023/01/14 00:04:35;;;;;;;;;;;;;;;;;;1043432;28;20326;-76
2023/01/14 00:05:06;;;;;;;;;;;;;;;;;;1043615;28;19913;-76
2023/01/14 00:05:37;;;;;;;;;;;;;;;;;;1043758;28;19913;-76
2023/01/14 00:06:08;;;;;;;;;;;;;;;;;;1043829;28;20378;-76
2023/01/14 00:06:39;;;;;;;;;;;;;;;;;;1044010;28;19912;-77
2023/01/14 00:07:09;;;;;;;;;;;;;;;;;;1048352;28;20030;-76
2023/01/14 00:07:40;;;;;;;;;;;;;;;;;;1048329;28;19912;-77
2023/01/14 00:08:11;;;;;;;;;;;;;;;;;;1043657;28;19947;-76
2023/01/14 00:08:42;;;;;;;;;;;;;;;;;;1043622;28;19913;-77
2023/01/14 00:09:13;;;;;;;;;;;;;;;;;;1039367;28;19967;-79
2023/01/14 00:09:44;;;;;;;;;;;;;;;;;;1039822;28;19941;-76
2023/01/14 00:10:15;;;;;;;;;;;;;;;;;;1041414;28;20368;-77
2023/01/14 00:10:46;;;;;;;;;;;;;;;;;;1043949;28;19962;-76
2023/01/14 00:11:17;;;;;;;;;;;;;;;;;;1039672;28;19936;-76
2023/01/14 00:11:50;;;;;;;;;;;;;;;;;;1042724;28;19917;-77
2023/01/14 00:12:21;;;;;;;;;;;;;;;;;;1039541;28;19913;-77
2023/01/14 00:12:52;;;;;;;;;;;;;;;;;;1039810;28;20339;-77
2023/01/14 00:13:23;;;;;;;;;;;;;;;;;;1039832;28;19948;-77
2023/01/14 00:13:54;;;;;;;;;;;;;;;;;;1039698;28;20308;-77
2023/01/14 00:14:25;;;;;;;;;;;;;;;;;;1035530;28;19919;-77
2023/01/14 00:14:56;;;;;;;;;;;;;;;;;;1039689;28;19920;-77
2023/01/14 00:15:26;;;;;;;;;;;;;;;;;;1035410;28;19940;-76
2023/01/14 00:15:57;;;;;;;;;;;;;;;;;;1035637;28;20415;-76
2023/01/14 00:16:28;;;;;;;;;;;;;;;;;;1039342;28;19921;-78
2023/01/14 00:16:59;;;;;;;;;;;;;;;;;;1041266;28;19917;-77
2023/01/14 00:17:30;;;;;;;;;;;;;;;;;;1039775;28;20347;-76
2023/01/14 00:18:01;;;;;;;;;;;;;;;;;;1043541;28;19917;-77
2023/01/14 00:18:32;;;;;;;;;;;;;;;;;;1043522;28;19996;-77
2023/01/14 00:19:03;;;;;;;;;;;;;;;;;;1043761;28;19917;-77
2023/01/14 00:19:34;;;;;;;;;;;;;;;;;;1043577;28;19917;-77
2023/01/14 00:20:04;;;;;;;;;;;;;;;;;;1043950;28;19975;-76
2023/01/14 00:20:35;;;;;;;;;;;;;;;;;;1043715;28;19919;-76
2023/01/14 00:21:06;;;;;;;;;;;;;;;;;;1048238;28;19913;-77
2023/01/14 00:21:37;;;;;;;;;;;;;;;;;;1048055;28;19951;-76
2023/01/14 00:22:08;;;;;;;;;;;;;;;;;;1048005;28;19919;-77
2023/01/14 00:22:39;;;;;;;;;;;;;;;;;;1048112;28;19919;-77
2023/01/14 00:23:10;;;;;;;;;;;;;;;;;;1048401;28;20297;-77
2023/01/14 00:23:41;;;;;;;;;;;;;;;;;;1048009;28;20012;-76
2023/01/14 00:24:11;;;;;;;;;;;;;;;;;;1048011;28;20346;-77
2023/01/14 00:24:42;;;;;;;;;;;;;;;;;;1043619;28;19917;-76
2023/01/14 00:25:14;;;;;;;;;;;;;;;;;;1039549;28;19978;-78
2023/01/14 00:25:45;;;;;;;;;;;;;;;;;;1039484;28;19905;-76
2023/01/14 00:26:16;;;;;;;;;;;;;;;;;;1039912;28;19999;-76
2023/01/14 00:26:47;;;;;;;;;;;;;;;;;;1043612;28;19909;-77
2023/01/14 00:27:18;;;;;;;;;;;;;;;;;;1043299;28;19909;-77
2023/01/14 00:27:49;;;;;;;;;;;;;;;;;;1039495;28;19999;-76
2023/01/14 00:28:20;;;;;;;;;;;;;;;;;;1039874;28;20004;-76
2023/01/14 00:28:51;;;;;;;;;;;;;;;;;;1043633;28;19905;-77
2023/01/14 00:29:22;;;;;;;;;;;;;;;;;;1043623;28;19946;-78
2023/01/14 00:29:52;;;;;;;;;;;;;;;;;;1043561;28;19909;-77
2023/01/14 00:30:23;;;;;;;;;;;;;;;;;;1043782;28;19913;-77
2023/01/14 00:30:54;;;;;;;;;;;;;;;;;;1043638;28;20004;-77
2023/01/14 00:31:25;;;;;;;;;;;;;;;;;;1043607;28;19909;-77
2023/01/14 00:31:56;;;;;;;;;;;;;;;;;;1043149;28;20538;-77
2023/01/14 00:32:27;;;;;;;;;;;;;;;;;;1043641;28;19909;-76
2023/01/14 00:32:58;;;;;;;;;;;;;;;;;;1043540;28;19940;-77
2023/01/14 00:33:29;;;;;;;;;;;;;;;;;;1039508;28;20367;-76
2023/01/14 00:33:59;;;;;;;;;;;;;;;;;;1041104;28;19916;-77
2023/01/14 00:34:30;;;;;;;;;;;;;;;;;;1043631;28;19944;-77
2023/01/14 00:35:01;;;;;;;;;;;;;;;;;;1043750;28;20547;-77
2023/01/14 00:35:32;;;;;;;;;;;;;;;;;;1043830;28;19937;-77
2023/01/14 00:36:03;;;;;;;;;;;;;;;;;;1047918;28;20262;-77
2023/01/14 00:36:34;;;;;;;;;;;;;;;;;;1048002;28;19909;-77
2023/01/14 00:37:05;;;;;;;;;;;;;;;;;;1048206;28;19954;-77
2023/01/14 00:37:35;;;;;;;;;;;;;;;;;;1047781;28;20343;-76
2023/01/14 00:38:06;;;;;;;;;;;;;;;;;;1048091;28;19913;-76
2023/01/14 00:38:37;;;;;;;;;;;;;;;;;;1048025;28;19908;-77
2023/01/14 00:39:08;;;;;;;;;;;;;;;;;;1043357;28;20272;-78
2023/01/14 00:39:39;;;;;;;;;;;;;;;;;;1043510;28;19908;-77
2023/01/14 00:40:10;;;;;;;;;;;;;;;;;;1043541;28;19912;-77
2023/01/14 00:40:41;;;;;;;;;;;;;;;;;;1039474;28;19914;-76
2023/01/14 00:41:12;;;;;;;;;;;;;;;;;;1039556;28;20049;-78
2023/01/14 00:41:42;;;;;;;;;;;;;;;;;;1043544;28;19913;-77
2023/01/14 00:42:13;;;;;;;;;;;;;;;;;;1039577;28;20018;-78
2023/01/14 00:42:44;;;;;;;;;;;;;;;;;;1040109;28;20675;-77
2023/01/14 00:43:15;;;;;;;;;;;;;;;;;;1039451;28;19920;-76
2023/01/14 00:43:46;;;;;;;;;;;;;;;;;;1039840;28;19956;-77
2023/01/14 00:44:19;;;;;;;;;;;;;;;;;;1043111;28;20579;-76
2023/01/14 00:44:50;;;;;;;;;;;;;;;;;;1043361;28;19939;-76
2023/01/14 00:45:20;;;;;;;;;;;;;;;;;;1040038;28;19905;-77
2023/01/14 00:45:51;;;;;;;;;;;;;;;;;;1043432;28;19905;-77
2023/01/14 00:46:22;;;;;;;;;;;;;;;;;;1043638;28;20056;-77
2023/01/14 00:46:53;;;;;;;;;;;;;;;;;;1043619;28;19909;-76
2023/01/14 00:47:24;;;;;;;;;;;;;;;;;;1043539;28;19947;-77
2023/01/14 00:47:55;;;;;;;;;;;;;;;;;;1043633;28;19984;-77
2023/01/14 00:48:26;;;;;;;;;;;;;;;;;;1043857;28;19913;-77
2023/01/14 00:48:58;;;;;;;;;;;;;;;;;;1043679;28;19909;-77
2023/01/14 00:49:29;;;;;;;;;;;;;;;;;;1043529;28;20381;-77
2023/01/14 00:50:01;;;;;;;;;;;;;;;;;;1039240;28;20554;-77
2023/01/14 00:50:31;;;;;;;;;;;;;;;;;;1035841;28;19918;-77
2023/01/14 00:51:02;;;;;;;;;;;;;;;;;;1039245;28;19924;-77
2023/01/14 00:51:33;;;;;;;;;;;;;;;;;;1039866;28;20781;-76
2023/01/14 00:52:04;;;;;;;;;;;;;;;;;;1043875;28;19909;-77
2023/01/14 00:52:35;;;;;;;;;;;;;;;;;;1047808;28;19915;-76
2023/01/14 00:53:06;;;;;;;;;;;;;;;;;;1048051;28;19909;-77
2023/01/14 00:53:37;;;;;;;;;;;;;;;;;;1043605;28;19916;-77
2023/01/14 00:54:08;;;;;;;;;;;;;;;;;;1043477;28;19924;-77
2023/01/14 00:54:39;;;;;;;;;;;;;;;;;;1043525;28;19909;-76
2023/01/14 00:55:09;;;;;;;;;;;;;;;;;;1039109;28;20048;-77
2023/01/14 00:55:40;;;;;;;;;;;;;;;;;;1039588;28;19999;-77
2023/01/14 00:56:11;;;;;;;;;;;;;;;;;;1039545;28;19909;-77
2023/01/14 00:56:42;;;;;;;;;;;;;;;;;;1043658;28;19919;-76
2023/01/14 00:57:15;;;;;;;;;;;;;;;;;;1043191;28;20666;-76
2023/01/14 00:57:46;;;;;;;;;;;;;;;;;;1043882;28;19905;-77
2023/01/14 00:58:17;;;;;;;;;;;;;;;;;;1043103;28;19909;-76
2023/01/14 00:58:48;;;;;;;;;;;;;;;;;;1043901;28;19915;-76
2023/01/14 00:59:19;;;;;;;;;;;;;;;;;;1043211;28;19955;-76
2023/01/14 00:59:50;;;;;;;;;;;;;;;;;;1043727;28;19916;-76
2023/01/14 01:00:21;;;;;;;;;;;;;;;;;;1043004;28;19995;-79
2023/01/14 01:00:52;;;;;;;;;;;;;;;;;;1043585;28;19909;-77
2023/01/14 01:01:23;;;;;;;;;;;;;;;;;;1043153;28;20009;-77
2023/01/14 01:01:55;;;;;;;;;;;;;;;;;;1043702;28;19951;-77
2023/01/14 01:02:26;;;;;;;;;;;;;;;;;;1047582;28;19916;-77
2023/01/14 01:02:57;;;;;;;;;;;;;;;;;;1043442;28;19940;-76
2023/01/14 01:03:28;;;;;;;;;;;;;;;;;;1042985;28;19909;-77
2023/01/14 01:03:59;;;;;;;;;;;;;;;;;;1043439;28;19913;-77
2023/01/14 01:04:30;;;;;;;;;;;;;;;;;;1038961;28;19924;-77
2023/01/14 01:05:00;;;;;;;;;;;;;;;;;;1039593;28;20368;-76
2023/01/14 01:05:31;;;;;;;;;;;;;;;;;;1039116;28;19921;-77
2023/01/14 01:06:02;;;;;;;;;;;;;;;;;;1035214;28;19917;-77
2023/01/14 01:06:33;;;;;;;;;;;;;;;;;;1039309;28;19917;-78
2023/01/14 01:07:05;;;;;;;;;;;;;;;;;;1035255;28;19913;-77
2023/01/14 01:07:36;;;;;;;;;;;;;;;;;;1039494;28;19909;-77
2023/01/14 01:08:07;;;;;;;;;;;;;;;;;;1039085;28;20004;-77
2023/01/14 01:08:37;;;;;;;;;;;;;;;;;;1039440;28;19920;-77
2023/01/14 01:09:08;;;;;;;;;;;;;;;;;;1043192;28;20683;-78
2023/01/14 01:09:39;;;;;;;;;;;;;;;;;;1043673;28;19913;-76
2023/01/14 01:10:10;;;;;;;;;;;;;;;;;;1042969;28;20383;-77
2023/01/14 01:10:41;;;;;;;;;;;;;;;;;;1043277;28;19920;-76
2023/01/14 01:11:12;;;;;;;;;;;;;;;;;;1043018;28;19913;-77
2023/01/14 01:11:43;;;;;;;;;;;;;;;;;;1043330;28;20004;-77
2023/01/14 01:12:14;;;;;;;;;;;;;;;;;;1042909;28;20527;-77
2023/01/14 01:12:45;;;;;;;;;;;;;;;;;;1043467;28;20007;-76
2023/01/14 01:13:15;;;;;;;;;;;;;;;;;;1038812;28;19913;-77
2023/01/14 01:13:46;;;;;;;;;;;;;;;;;;1039205;28;19948;-77
2023/01/14 01:14:17;;;;;;;;;;;;;;;;;;1042749;28;20007;-78
2023/01/14 01:14:48;;;;;;;;;;;;;;;;;;1043372;28;19984;-77
2023/01/14 01:15:19;;;;;;;;;;;;;;;;;;1038763;28;19952;-76
2023/01/14 01:15:50;;;;;;;;;;;;;;;;;;1039502;28;19967;-76
2023/01/14 01:16:23;;;;;;;;;;;;;;;;;;1038774;28;19913;-77
2023/01/14 01:16:54;;;;;;;;;;;;;;;;;;1039736;28;20342;-77
2023/01/14 01:17:25;;;;;;;;;;;;;;;;;;1043196;28;20352;-76
2023/01/14 01:17:56;;;;;;;;;;;;;;;;;;1044164;28;19951;-76
2023/01/14 01:18:27;;;;;;;;;;;;;;;;;;1047748;28;19919;-75
2023/01/14 01:18:58;;;;;;;;;;;;;;;;;;1043462;28;20347;-77
2023/01/14 01:19:29;;;;;;;;;;;;;;;;;;1043239;28;19954;-77
2023/01/14 01:19:59;;;;;;;;;;;;;;;;;;1043511;28;20076;-76
2023/01/14 01:20:30;;;;;;;;;;;;;;;;;;1043139;28;19909;-76
2023/01/14 01:21:01;;;;;;;;;;;;;;;;;;1043868;28;19913;-77
2023/01/14 01:21:32;;;;;;;;;;;;;;;;;;1047879;28;19931;-75
2023/01/14 01:22:03;;;;;;;;;;;;;;;;;;1047731;28;19940;-77
2023/01/14 01:22:34;;;;;;;;;;;;;;;;;;1042915;28;19920;-77
2023/01/14 01:23:05;;;;;;;;;;;;;;;;;;1043430;28;19973;-77
2023/01/14 01:23:40;;;;;;;;;;;;;;;;;;1042930;28;19913;-77
2023/01/14 01:24:11;;;;;;;;;;;;;;;;;;1042873;28;19913;-76
2023/01/14 01:24:41;;;;;;;;;;;;;;;;;;1039066;28;20474;-77
2023/01/14 01:25:12;;;;;;;;;;;;;;;;;;1038926;28;19909;-76
2023/01/14 01:25:43;;;;;;;;;;;;;;;;;;1039007;28;19909;-77
2023/01/14 01:26:15;;;;;;;;;;;;;;;;;;1038910;28;19994;-77
2023/01/14 01:26:47;;;;;;;;;;;;;;;;;;1035141;28;20311;-77
2023/01/14 01:27:18;;;;;;;;;;;;;;;;;;1035425;28;19956;-77
2023/01/14 01:27:49;;;;;;;;;;;;;;;;;;1039350;28;20016;-76
2023/01/14 01:28:20;;;;;;;;;;;;;;;;;;1039216;28;20253;-76
2023/01/14 01:28:51;;;;;;;;;;;;;;;;;;1044679;28;19915;-77
2023/01/14 01:29:22;;;;;;;;;;;;;;;;;;1047075;28;19908;-76
2023/01/14 01:29:53;;;;;;;;;;;;;;;;;;1047664;28;19908;-77
2023/01/14 01:30:24;;;;;;;;;;;;;;;;;;1043046;28;19909;-77
2023/01/14 01:30:55;;;;;;;;;;;;;;;;;;1038943;28;19909;-76
2023/01/14 01:31:26;;;;;;;;;;;;;;;;;;1039056;28;19927;-77
2023/01/14 01:31:57;;;;;;;;;;;;;;;;;;1038856;28;20369;-76
2023/01/14 01:32:28;;;;;;;;;;;;;;;;;;1043332;28;19928;-76
2023/01/14 01:33:01;;;;;;;;;;;;;;;;;;1043011;28;19931;-77
2023/01/14 01:33:31;;;;;;;;;;;;;;;;;;1043105;28;19909;-77
2023/01/14 01:34:02;;;;;;;;;;;;;;;;;;1043010;28;20641;-77
2023/01/14 01:34:33;;;;;;;;;;;;;;;;;;1043363;28;19959;-78
2023/01/14 01:35:04;;;;;;;;;;;;;;;;;;1039013;28;19909;-77
2023/01/14 01:35:35;;;;;;;;;;;;;;;;;;1043190;28;19936;-77
2023/01/14 01:36:06;;;;;;;;;;;;;;;;;;1038854;28;20600;-77
2023/01/14 01:36:37;;;;;;;;;;;;;;;;;;1039033;28;19967;-77
2023/01/14 01:37:08;;;;;;;;;;;;;;;;;;1034726;28;20339;-77
2023/01/14 01:37:38;;;;;;;;;;;;;;;;;;1039047;28;20659;-77
2023/01/14 01:38:09;;;;;;;;;;;;;;;;;;1039485;28;19909;-77
2023/01/14 01:38:40;;;;;;;;;;;;;;;;;;1043483;28;20422;-77
2023/01/14 01:39:11;;;;;;;;;;;;;;;;;;1045382;28;19915;-77
2023/01/14 01:39:42;;;;;;;;;;;;;;;;;;1043106;28;20012;-77
2023/01/14 01:40:13;;;;;;;;;;;;;;;;;;1043095;28;20028;-78
2023/01/14 01:40:44;;;;;;;;;;;;;;;;;;1043405;28;19915;-76
2023/01/14 01:41:15;;;;;;;;;;;;;;;;;;1043471;28;19982;-77
2023/01/14 01:41:46;;;;;;;;;;;;;;;;;;1047756;28;19949;-76
2023/01/14 01:42:19;;;;;;;;;;;;;;;;;;1047882;28;19916;-77
2023/01/14 01:42:57;;;;;;;;;;;;;;;;;;1043867;28;19917;-77
2023/01/14 01:43:28;;;;;;;;;;;;;;;;;;1038989;28;19909;-77
2023/01/14 01:43:59;;;;;;;;;;;;;;;;;;1039129;28;20007;-77
2023/01/14 01:44:30;;;;;;;;;;;;;;;;;;1043184;28;19916;-77
2023/01/14 01:45:01;;;;;;;;;;;;;;;;;;1043381;28;20007;-77
2023/01/14 01:45:32;;;;;;;;;;;;;;;;;;1043384;28;19968;-76
2023/01/14 01:46:03;;;;;;;;;;;;;;;;;;1047529;28;20367;-77
2023/01/14 01:46:34;;;;;;;;;;;;;;;;;;1047475;28;20275;-78
2023/01/14 01:47:05;;;;;;;;;;;;;;;;;;1043413;28;20379;-77
2023/01/14 01:47:35;;;;;;;;;;;;;;;;;;1042960;28;19912;-77
2023/01/14 01:48:06;;;;;;;;;;;;;;;;;;1043367;28;20620;-76
2023/01/14 01:48:37;;;;;;;;;;;;;;;;;;1043627;28;19920;-77
2023/01/14 01:49:08;;;;;;;;;;;;;;;;;;1047449;28;20287;-77
2023/01/14 01:49:39;;;;;;;;;;;;;;;;;;1047733;28;19943;-77
2023/01/14 01:50:10;;;;;;;;;;;;;;;;;;1047666;28;20322;-76
2023/01/14 01:50:41;;;;;;;;;;;;;;;;;;1047795;28;19912;-77
2023/01/14 01:51:12;;;;;;;;;;;;;;;;;;1047641;28;19912;-77
2023/01/14 01:51:42;;;;;;;;;;;;;;;;;;1043402;28;19948;-77
2023/01/14 01:52:13;;;;;;;;;;;;;;;;;;1042981;28;19912;-77
2023/01/14 01:52:45;;;;;;;;;;;;;;;;;;1043242;28;19912;-77
2023/01/14 01:53:16;;;;;;;;;;;;;;;;;;1043205;28;19913;-77
2023/01/14 01:53:48;;;;;;;;;;;;;;;;;;1043509;28;20015;-77
2023/01/14 01:54:19;;;;;;;;;;;;;;;;;;1043783;28;19999;-77
2023/01/14 01:54:50;;;;;;;;;;;;;;;;;;1043405;28;19909;-77
2023/01/14 01:55:21;;;;;;;;;;;;;;;;;;1043074;28;19920;-77
2023/01/14 01:55:52;;;;;;;;;;;;;;;;;;1043414;28;20422;-76
2023/01/14 01:56:23;;;;;;;;;;;;;;;;;;1043163;28;19909;-77
2023/01/14 01:56:54;;;;;;;;;;;;;;;;;;1043515;28;19913;-77
2023/01/14 01:57:25;;;;;;;;;;;;;;;;;;1043483;28;19913;-77
2023/01/14 01:57:56;;;;;;;;;;;;;;;;;;1043418;28;20275;-77
2023/01/14 01:58:27;;;;;;;;;;;;;;;;;;1043041;28;19963;-77
2023/01/14 01:58:58;;;;;;;;;;;;;;;;;;1043290;28;20003;-77
2023/01/14 01:59:29;;;;;;;;;;;;;;;;;;1043388;28;19939;-77
2023/01/14 02:00:00;;;;;;;;;;;;;;;;;;1043233;28;19983;-77
2023/01/14 02:00:30;;;;;;;;;;;;;;;;;;1043536;28;20007;-76
2023/01/14 02:01:01;;;;;;;;;;;;;;;;;;1043307;28;19913;-76
2023/01/14 02:01:32;;;;;;;;;;;;;;;;;;1043084;28;19920;-76
2023/01/14 02:02:03;;;;;;;;;;;;;;;;;;1043382;28;20011;-77
2023/01/14 02:02:34;;;;;;;;;;;;;;;;;;1043063;28;19913;-76
2023/01/14 02:03:05;;;;;;;;;;;;;;;;;;1042907;28;20453;-77
2023/01/14 02:03:36;;;;;;;;;;;;;;;;;;1039067;28;19919;-77
2023/01/14 02:04:07;;;;;;;;;;;;;;;;;;1039551;28;19913;-77
2023/01/14 02:04:38;;;;;;;;;;;;;;;;;;1043430;28;19988;-76
2023/01/14 02:05:08;;;;;;;;;;;;;;;;;;1043391;28;19908;-77
2023/01/14 02:05:40;;;;;;;;;;;;;;;;;;1043326;28;20007;-76
2023/01/14 02:06:10;;;;;;;;;;;;;;;;;;1043195;28;19951;-76
2023/01/14 02:06:41;;;;;;;;;;;;;;;;;;1043155;28;19912;-76
2023/01/14 02:07:12;;;;;;;;;;;;;;;;;;1043232;28;19912;-77
2023/01/14 02:07:43;;;;;;;;;;;;;;;;;;1043258;28;19920;-77
2023/01/14 02:08:14;;;;;;;;;;;;;;;;;;1043233;28;19940;-78
2023/01/14 02:08:45;;;;;;;;;;;;;;;;;;1043135;28;19919;-77
2023/01/14 02:09:16;;;;;;;;;;;;;;;;;;1043723;28;20375;-77
2023/01/14 02:09:47;;;;;;;;;;;;;;;;;;1047846;28;19913;-77
2023/01/14 02:10:17;;;;;;;;;;;;;;;;;;1043020;28;19951;-77
2023/01/14 02:10:48;;;;;;;;;;;;;;;;;;1043343;28;19913;-77
2023/01/14 02:11:19;;;;;;;;;;;;;;;;;;1043337;28;20005;-76
2023/01/14 02:11:50;;;;;;;;;;;;;;;;;;1043492;28;20272;-76
2023/01/14 02:12:21;;;;;;;;;;;;;;;;;;1047901;28;19957;-77
2023/01/14 02:12:52;;;;;;;;;;;;;;;;;;1043178;28;19936;-77
2023/01/14 02:13:23;;;;;;;;;;;;;;;;;;1043122;28;20435;-77
2023/01/14 02:13:54;;;;;;;;;;;;;;;;;;1043242;28;19920;-77
2023/01/14 02:14:25;;;;;;;;;;;;;;;;;;1043374;28;19912;-76
2023/01/14 02:14:56;;;;;;;;;;;;;;;;;;1043132;28;19912;-77
2023/01/14 02:15:27;;;;;;;;;;;;;;;;;;1043615;28;20019;-76
2023/01/14 02:15:58;;;;;;;;;;;;;;;;;;1047353;28;19912;-77
2023/01/14 02:16:29;;;;;;;;;;;;;;;;;;1045309;28;20034;-76
2023/01/14 02:17:00;;;;;;;;;;;;;;;;;;1045394;28;19920;-78
2023/01/14 02:17:31;;;;;;;;;;;;;;;;;;1043144;28;19920;-77
2023/01/14 02:18:02;;;;;;;;;;;;;;;;;;1043201;28;19917;-76
2023/01/14 02:18:32;;;;;;;;;;;;;;;;;;1043167;28;19912;-77
2023/01/14 02:19:03;;;;;;;;;;;;;;;;;;1043291;28;19919;-77
2023/01/14 02:19:34;;;;;;;;;;;;;;;;;;1043171;28;19971;-77
2023/01/14 02:20:05;;;;;;;;;;;;;;;;;;1039104;28;20446;-77
2023/01/14 02:20:36;;;;;;;;;;;;;;;;;;1039281;28;20004;-76
2023/01/14 02:21:07;;;;;;;;;;;;;;;;;;1043211;28;20466;-78
2023/01/14 02:21:38;;;;;;;;;;;;;;;;;;1043175;28;20430;-77
2023/01/14 02:22:09;;;;;;;;;;;;;;;;;;1043202;28;19913;-76
2023/01/14 02:22:40;;;;;;;;;;;;;;;;;;1043247;28;20015;-76
2023/01/14 02:23:10;;;;;;;;;;;;;;;;;;1043280;28;19940;-76
2023/01/14 02:23:41;;;;;;;;;;;;;;;;;;1042999;28;19981;-77
2023/01/14 02:24:12;;;;;;;;;;;;;;;;;;1042939;28;19912;-77
2023/01/14 02:24:43;;;;;;;;;;;;;;;;;;1043218;28;19920;-77
2023/01/14 02:25:14;;;;;;;;;;;;;;;;;;1038887;28;20000;-77
2023/01/14 02:25:45;;;;;;;;;;;;;;;;;;1042854;28;20386;-77
2023/01/14 02:26:16;;;;;;;;;;;;;;;;;;1043154;28;20015;-77
2023/01/14 02:26:47;;;;;;;;;;;;;;;;;;1043607;28;19913;-77
2023/01/14 02:27:17;;;;;;;;;;;;;;;;;;1047554;28;19962;-76
2023/01/14 02:27:48;;;;;;;;;;;;;;;;;;1047788;28;20632;-77
2023/01/14 02:28:19;;;;;;;;;;;;;;;;;;1047634;28;20008;-76
2023/01/14 02:28:50;;;;;;;;;;;;;;;;;;1043307;28;19999;-76
2023/01/14 02:29:21;;;;;;;;;;;;;;;;;;1043202;28;19974;-76
2023/01/14 02:29:52;;;;;;;;;;;;;;;;;;1043284;28;19957;-76
2023/01/14 02:30:23;;;;;;;;;;;;;;;;;;1043232;28;19955;-76
2023/01/14 02:30:54;;;;;;;;;;;;;;;;;;1043320;28;19913;-77
2023/01/14 02:31:24;;;;;;;;;;;;;;;;;;1039176;28;19913;-77
2023/01/14 02:31:55;;;;;;;;;;;;;;;;;;1038724;28;19917;-77
2023/01/14 02:32:26;;;;;;;;;;;;;;;;;;1039034;28;19943;-77
2023/01/14 02:32:57;;;;;;;;;;;;;;;;;;1039239;28;19917;-76
2023/01/14 02:33:28;;;;;;;;;;;;;;;;;;1043500;28;20424;-77
2023/01/14 02:33:59;;;;;;;;;;;;;;;;;;1047541;28;20028;-76
2023/01/14 02:34:30;;;;;;;;;;;;;;;;;;1043259;28;19913;-77
2023/01/14 02:35:00;;;;;;;;;;;;;;;;;;1043095;28;20362;-76
2023/01/14 02:35:31;;;;;;;;;;;;;;;;;;1043171;28;19963;-77
2023/01/14 02:36:02;;;;;;;;;;;;;;;;;;1043001;28;19941;-77
2023/01/14 02:36:33;;;;;;;;;;;;;;;;;;1043182;28;20441;-77
2023/01/14 02:37:04;;;;;;;;;;;;;;;;;;1043119;28;19963;-77
2023/01/14 02:37:35;;;;;;;;;;;;;;;;;;1039049;28;20007;-77
2023/01/14 02:38:07;;;;;;;;;;;;;;;;;;1043030;28;19917;-77
2023/01/14 02:38:38;;;;;;;;;;;;;;;;;;1043321;28;20386;-77
2023/01/14 02:39:09;;;;;;;;;;;;;;;;;;1043312;28;20348;-77
2023/01/14 02:39:39;;;;;;;;;;;;;;;;;;1047100;28;19959;-77
2023/01/14 02:40:10;;;;;;;;;;;;;;;;;;1043421;28;20346;-77
2023/01/14 02:40:41;;;;;;;;;;;;;;;;;;1044077;28;19908;-77
2023/01/14 02:41:12;;;;;;;;;;;;;;;;;;1047326;28;19920;-77
2023/01/14 02:44:12;;;;;;;;;;;;;;;;;;1047530;28;19916;-77
2023/01/14 02:44:43;;;;;;;;;;;;;;;;;;1047650;28;19952;-77
2023/01/14 02:45:14;;;;;;;;;;;;;;;;;;1047531;28;19982;-77
2023/01/14 02:45:45;;;;;;;;;;;;;;;;;;1047688;28;19912;-77
2023/01/14 02:46:15;;;;;;;;;;;;;;;;;;1047742;28;20023;-76
2023/01/14 02:46:46;;;;;;;;;;;;;;;;;;1043156;28;20590;-76
2023/01/14 02:47:17;;;;;;;;;;;;;;;;;;1043173;28;19956;-77
2023/01/14 02:47:48;;;;;;;;;;;;;;;;;;1043112;28;19913;-76
2023/01/14 02:48:19;;;;;;;;;;;;;;;;;;1043473;28;19962;-76
2023/01/14 02:48:50;;;;;;;;;;;;;;;;;;1043033;28;19941;-77
2023/01/14 02:49:21;;;;;;;;;;;;;;;;;;1043092;28;20446;-76
2023/01/14 02:49:52;;;;;;;;;;;;;;;;;;1042008;28;19917;-76
2023/01/14 02:50:22;;;;;;;;;;;;;;;;;;1043404;28;20631;-77
2023/01/14 02:50:53;;;;;;;;;;;;;;;;;;1047517;28;19920;-77
2023/01/14 02:51:24;;;;;;;;;;;;;;;;;;1048027;28;19997;-77
2023/01/14 02:51:55;;;;;;;;;;;;;;;;;;1043839;28;20363;-76
2023/01/14 02:52:26;;;;;;;;;;;;;;;;;;1043987;28;20003;-76
2023/01/14 02:52:57;;;;;;;;;;;;;;;;;;1043994;28;20056;-77
2023/01/14 02:53:28;;;;;;;;;;;;;;;;;;1043908;28;20581;-77
2023/01/14 02:53:59;;;;;;;;;;;;;;;;;;1044011;28;19913;-76
2023/01/14 02:54:29;;;;;;;;;;;;;;;;;;1044107;28;19996;-77
2023/01/14 02:55:00;;;;;;;;;;;;;;;;;;1043873;28;19912;-77
2023/01/14 02:55:31;;;;;;;;;;;;;;;;;;1043991;28;19919;-77
2023/01/14 02:56:02;;;;;;;;;;;;;;;;;;1044139;28;19913;-76
2023/01/14 02:56:33;;;;;;;;;;;;;;;;;;1048679;28;19952;-77
2023/01/14 02:57:04;;;;;;;;;;;;;;;;;;1043884;28;20517;-78
2023/01/14 02:57:35;;;;;;;;;;;;;;;;;;1043999;28;19936;-77
2023/01/14 02:58:06;;;;;;;;;;;;;;;;;;1043875;28;19955;-76
2023/01/14 02:58:37;;;;;;;;;;;;;;;;;;1044398;28;19913;-77
2023/01/14 02:59:07;;;;;;;;;;;;;;;;;;1048345;28;19999;-77
2023/01/14 02:59:38;;;;;;;;;;;;;;;;;;1044143;28;19909;-77
2023/01/14 03:00:09;;;;;;;;;;;;;;;;;;1043987;28;19920;-77
2023/01/14 03:00:40;;;;;;;;;;;;;;;;;;1044172;28;20007;-76
2023/01/14 03:01:11;;;;;;;;;;;;;;;;;;1044315;28;19913;-77
2023/01/14 03:01:42;;;;;;;;;;;;;;;;;;1043988;28;19966;-77
2023/01/14 03:02:13;;;;;;;;;;;;;;;;;;1043694;28;20000;-77
2023/01/14 03:02:44;;;;;;;;;;;;;;;;;;1044231;28;19931;-77
2023/01/14 03:03:15;;;;;;;;;;;;;;;;;;1043779;28;20091;-77
2023/01/14 03:03:45;;;;;;;;;;;;;;;;;;1044136;28;19924;-76
2023/01/14 03:04:16;;;;;;;;;;;;;;;;;;1043879;28;19947;-77
2023/01/14 03:04:47;;;;;;;;;;;;;;;;;;1044069;28;20287;-76
2023/01/14 03:05:18;;;;;;;;;;;;;;;;;;1044302;28;20352;-77
2023/01/14 03:05:49;;;;;;;;;;;;;;;;;;1043952;28;19909;-76
2023/01/14 03:06:20;;;;;;;;;;;;;;;;;;1043861;28;20426;-76
2023/01/14 03:06:51;;;;;;;;;;;;;;;;;;1043872;28;19931;-77
2023/01/14 03:07:22;;;;;;;;;;;;;;;;;;1044002;28;20372;-76
2023/01/14 03:07:53;;;;;;;;;;;;;;;;;;1044334;28;19909;-77
2023/01/14 03:08:24;;;;;;;;;;;;;;;;;;1048373;28;19909;-77
2023/01/14 03:08:55;;;;;;;;;;;;;;;;;;1048561;28;20012;-76
2023/01/14 03:09:25;;;;;;;;;;;;;;;;;;1048458;28;19909;-77
2023/01/14 03:09:56;;;;;;;;;;;;;;;;;;1048349;28;20570;-76
2023/01/14 03:10:28;;;;;;;;;;;;;;;;;;1048333;28;19915;-77
2023/01/14 03:10:59;;;;;;;;;;;;;;;;;;1048595;28;19909;-76
2023/01/14 03:11:29;;;;;;;;;;;;;;;;;;1048605;28;19909;-76
2023/01/14 03:12:00;;;;;;;;;;;;;;;;;;1048346;28;19938;-77
2023/01/14 03:12:31;;;;;;;;;;;;;;;;;;1043879;28;20252;-76
2023/01/14 03:13:02;;;;;;;;;;;;;;;;;;1044070;28;19909;-76
2023/01/14 03:13:33;;;;;;;;;;;;;;;;;;1043715;28;20015;-76
2023/01/14 03:14:04;;;;;;;;;;;;;;;;;;1039845;28;19909;-76
2023/01/14 03:14:35;;;;;;;;;;;;;;;;;;1039883;28;19916;-77
2023/01/14 03:15:05;;;;;;;;;;;;;;;;;;1035777;28;20570;-77
2023/01/14 03:15:36;;;;;;;;;;;;;;;;;;1035840;28;19915;-77
2023/01/14 03:16:07;;;;;;;;;;;;;;;;;;1039853;28;20567;-77
2023/01/14 03:16:38;;;;;;;;;;;;;;;;;;1035968;28;19960;-77
2023/01/14 03:17:09;;;;;;;;;;;;;;;;;;1035682;28;19940;-77
2023/01/14 03:17:40;;;;;;;;;;;;;;;;;;1036048;28;19964;-76
2023/01/14 03:18:11;;;;;;;;;;;;;;;;;;1039966;28;19943;-76
2023/01/14 03:18:42;;;;;;;;;;;;;;;;;;1044357;28;20585;-77
2023/01/14 03:19:13;;;;;;;;;;;;;;;;;;1048364;28;19908;-77
2023/01/14 03:19:43;;;;;;;;;;;;;;;;;;1048598;28;20351;-76
2023/01/14 03:20:14;;;;;;;;;;;;;;;;;;1043632;28;19908;-77
2023/01/14 03:20:45;;;;;;;;;;;;;;;;;;1044158;28;19909;-77
2023/01/14 03:21:16;;;;;;;;;;;;;;;;;;1043842;28;19920;-77
2023/01/14 03:21:48;;;;;;;;;;;;;;;;;;1044249;28;20427;-78
2023/01/14 03:22:18;;;;;;;;;;;;;;;;;;1048240;28;19965;-77
2023/01/14 03:22:49;;;;;;;;;;;;;;;;;;1044275;28;19959;-76
2023/01/14 03:23:20;;;;;;;;;;;;;;;;;;1043600;28;19915;-77
2023/01/14 03:23:51;;;;;;;;;;;;;;;;;;1044128;28;19913;-77
2023/01/14 03:24:22;;;;;;;;;;;;;;;;;;1043628;28;19909;-77
2023/01/14 03:24:53;;;;;;;;;;;;;;;;;;1044566;28;19920;-77
2023/01/14 03:25:24;;;;;;;;;;;;;;;;;;1043655;28;19912;-77
2023/01/14 03:25:55;;;;;;;;;;;;;;;;;;1044234;28;20481;-76
2023/01/14 03:26:26;;;;;;;;;;;;;;;;;;1039702;28;19913;-78
2023/01/14 03:26:57;;;;;;;;;;;;;;;;;;1035877;28;20288;-77
2023/01/14 03:27:28;;;;;;;;;;;;;;;;;;1039762;28;19917;-76
2023/01/14 03:27:58;;;;;;;;;;;;;;;;;;1036161;28;19936;-77
2023/01/14 03:28:29;;;;;;;;;;;;;;;;;;1039887;28;20439;-76
2023/01/14 03:29:00;;;;;;;;;;;;;;;;;;1043937;28;19913;-76
2023/01/14 03:29:31;;;;;;;;;;;;;;;;;;1043921;28;20071;-76
2023/01/14 03:30:03;;;;;;;;;;;;;;;;;;1043632;28;19913;-76
2023/01/14 03:30:34;;;;;;;;;;;;;;;;;;1043495;28;19990;-76
2023/01/14 03:31:05;;;;;;;;;;;;;;;;;;1043980;28;19986;-77
2023/01/14 03:31:35;;;;;;;;;;;;;;;;;;1043748;28;19913;-77
2023/01/14 03:32:06;;;;;;;;;;;;;;;;;;1043021;28;19920;-76
2023/01/14 03:32:37;;;;;;;;;;;;;;;;;;1039791;28;20327;-77
2023/01/14 03:33:08;;;;;;;;;;;;;;;;;;1039934;28;19913;-76
2023/01/14 03:33:39;;;;;;;;;;;;;;;;;;1044270;28;19912;-76
2023/01/14 03:34:10;;;;;;;;;;;;;;;;;;1043494;28;19912;-76